sensor_id;sensor_type;location;lat;lon;timestamp;pressure;altitude;pressure_sealevel;temperature;humidity
2397;BME280;1209;48.410;9.054;2022-12-18T00:01:20;97211.19;;;-10.70;100.00
2397;BME280;1209;48.410;9.054;2022-12-18T00:03:46;97208.69;;;-10.72;100.00
2397;BME280;1209;48.410;9.054;2022-12-18T00:06:12;97214.41;;;-10.62;100.00
2397;BME280;1209;48.410;9.054;2022-12-18T00:08:39;97208.34;;;-10.52;100.00
2397;BME280;1209;48.410;9.054;2022-12-18T00:11:05;97202.50;;;-10.54;100.00
2397;BME280;1209;48.410;9.054;2022-12-18T00:13:31;97212.56;;;-10.51;100.00
2397;BME280;1209;48.410;9.054;2022-12-18T00:16:11;97211.03;;;-10.61;100.00
2397;BME280;1209;48.410;9.054;2022-12-18T00:18:37;97209.06;;;-10.44;100.00
2397;BME280;1209;48.410;9.054;2022-12-18T00:21:05;97214.19;;;-10.49;100.00
2397;BME280;1209;48.410;9.054;2022-12-18T00:23:32;97206.31;;;-10.29;100.00
2397;BME280;1209;48.410;9.054;2022-12-18T00:26:03;97203.00;;;-10.31;100.00
2397;BME280;1209;48.410;9.054;2022-12-18T00:28:28;97204.06;;;-10.47;100.00
2397;BME280;1209;48.410;9.054;2022-12-18T00:31:04;97205.69;;;-10.43;100.00
2397;BME280;1209;48.410;9.054;2022-12-18T00:33:30;97209.03;;;-10.42;100.00
2397;BME280;1209;48.410;9.054;2022-12-18T00:36:01;97207.44;;;-10.46;100.00
2397;BME280;1209;48.410;9.054;2022-12-18T00:38:26;97220.34;;;-10.66;100.00
2397;BME280;1209;48.410;9.054;2022-12-18T00:40:51;97218.59;;;-10.61;100.00
2397;BME280;1209;48.410;9.054;2022-12-18T00:43:17;97210.81;;;-10.48;100.00
2397;BME280;1209;48.410;9.054;2022-12-18T00:45:42;97212.63;;;-10.56;100.00
2397;BME280;1209;48.410;9.054;2022-12-18T00:48:07;97212.41;;;-10.42;100.00
2397;BME280;1209;48.410;9.054;2022-12-18T00:50:33;97216.34;;;-10.78;100.00
2397;BME280;1209;48.410;9.054;2022-12-18T00:52:58;97207.88;;;-10.74;100.00
2397;BME280;1209;48.410;9.054;2022-12-18T00:55:23;97211.13;;;-10.67;100.00
2397;BME280;1209;48.410;9.054;2022-12-18T00:57:51;97211.03;;;-10.61;100.00
2397;BME280;1209;48.410;9.054;2022-12-18T01:00:17;97216.19;;;-10.69;100.00
2397;BME280;1209;48.410;9.054;2022-12-18T01:02:43;97221.41;;;-10.79;100.00
2397;BME280;1209;48.410;9.054;2022-12-18T01:05:10;97228.44;;;-11.03;100.00
2397;BME280;1209;48.410;9.054;2022-12-18T01:07:36;97224.88;;;-10.87;100.00
2397;BME280;1209;48.410;9.054;2022-12-18T01:10:01;97220.34;;;-10.66;100.00
2397;BME280;1209;48.410;9.054;2022-12-18T01:12:26;97224.63;;;-10.70;100.00
2397;BME280;1209;48.410;9.054;2022-12-18T01:14:52;97232.16;;;-10.68;100.00
2397;BME280;1209;48.410;9.054;2022-12-18T01:17:17;97231.22;;;-10.61;100.00
2397;BME280;1209;48.410;9.054;2022-12-18T01:19:42;97222.13;;;-10.73;100.00
2397;BME280;1209;48.410;9.054;2022-12-18T01:22:07;97212.63;;;-10.56;100.00
2397;BME280;1209;48.410;9.054;2022-12-18T01:24:33;97219.47;;;-10.64;100.00
2397;BME280;1209;48.410;9.054;2022-12-18T01:26:58;97223.38;;;-10.44;100.00
2397;BME280;1209;48.410;9.054;2022-12-18T01:29:23;97231.22;;;-10.61;100.00
2397;BME280;1209;48.410;9.054;2022-12-18T01:31:49;97222.00;;;-10.64;100.00
2397;BME280;1209;48.410;9.054;2022-12-18T01:34:14;97220.25;;;-10.60;100.00
2397;BME280;1209;48.410;9.054;2022-12-18T01:36:39;97233.16;;;-10.78;100.00
2397;BME280;1209;48.410;9.054;2022-12-18T01:39:07;97227.22;;;-10.76;100.00
2397;BME280;1209;48.410;9.054;2022-12-18T01:41:35;97232.31;;;-10.77;100.00
2397;BME280;1209;48.410;9.054;2022-12-18T01:47:35;97227.94;;;-10.66;100.00
2397;BME280;1209;48.410;9.054;2022-12-18T01:52:46;97240.50;;;-10.65;100.00
2397;BME280;1209;48.410;9.054;2022-12-18T01:55:13;97238.25;;;-10.82;100.00
2397;BME280;1209;48.410;9.054;2022-12-18T01:57:41;97235.00;;;-10.93;100.00
2397;BME280;1209;48.410;9.054;2022-12-18T02:00:18;97219.84;;;-10.90;100.00
2397;BME280;1209;48.410;9.054;2022-12-18T02:02:45;97211.31;;;-10.79;100.00
2397;BME280;1209;48.410;9.054;2022-12-18T02:05:13;97208.31;;;-10.49;100.00
2397;BME280;1209;48.410;9.054;2022-12-18T02:10:24;97213.56;;;-10.63;100.00
2397;BME280;1209;48.410;9.054;2022-12-18T02:13:03;97209.25;;;-10.56;100.00
2397;BME280;1209;48.410;9.054;2022-12-18T02:16:10;97223.81;;;-10.73;100.00
2397;BME280;1209;48.410;9.054;2022-12-18T02:18:41;97223.69;;;-10.64;100.00
2397;BME280;1209;48.410;9.054;2022-12-18T02:21:18;97234.00;;;-10.79;100.00
2397;BME280;1209;48.410;9.054;2022-12-18T02:23:58;97218.66;;;-10.64;100.00
2397;BME280;1209;48.410;9.054;2022-12-18T02:26:34;97226.16;;;-10.61;100.00
2397;BME280;1209;48.410;9.054;2022-12-18T02:29:08;97230.03;;;-10.37;100.00
2397;BME280;1209;48.410;9.054;2022-12-18T02:31:39;97225.84;;;-10.41;100.00
2397;BME280;1209;48.410;9.054;2022-12-18T02:34:08;97224.94;;;-10.34;100.00
2397;BME280;1209;48.410;9.054;2022-12-18T02:36:36;97228.38;;;-10.40;100.00
2397;BME280;1209;48.410;9.054;2022-12-18T02:39:04;97232.41;;;-10.30;100.00
2397;BME280;1209;48.410;9.054;2022-12-18T02:41:31;97230.94;;;-10.44;100.00
2397;BME280;1209;48.410;9.054;2022-12-18T02:44:00;97230.69;;;-10.28;100.00
2397;BME280;1209;48.410;9.054;2022-12-18T02:46:31;97235.66;;;-10.22;100.00
2397;BME280;1209;48.410;9.054;2022-12-18T02:49:17;97243.94;;;-10.17;100.00
2397;BME280;1209;48.410;9.054;2022-12-18T02:51:54;97249.19;;;-10.27;100.00
2397;BME280;1209;48.410;9.054;2022-12-18T02:57:40;97241.38;;;-10.13;100.00
2397;BME280;1209;48.410;9.054;2022-12-18T03:00:16;97246.38;;;-10.12;100.00
2397;BME280;1209;48.410;9.054;2022-12-18T03:02:45;97242.75;;;-9.96;100.00
2397;BME280;1209;48.410;9.054;2022-12-18T03:05:20;97243.78;;;-10.07;100.00
2397;BME280;1209;48.410;9.054;2022-12-18T03:07:52;97242.19;;;-10.11;100.00
2397;BME280;1209;48.410;9.054;2022-12-18T03:10:23;97234.53;;;-10.07;100.00
2397;BME280;1209;48.410;9.054;2022-12-18T03:13:12;97232.72;;;-10.00;100.00
2397;BME280;1209;48.410;9.054;2022-12-18T03:15:43;97232.13;;;-10.14;100.00
2397;BME280;1209;48.410;9.054;2022-12-18T03:18:14;97236.44;;;-10.20;100.00
2397;BME280;1209;48.410;9.054;2022-12-18T03:20:43;97221.72;;;-9.96;100.00
2397;BME280;1209;48.410;9.054;2022-12-18T03:23:13;97233.63;;;-10.04;100.00
2397;BME280;1209;48.410;9.054;2022-12-18T03:25:42;97237.66;;;-9.93;100.00
2397;BME280;1209;48.410;9.054;2022-12-18T03:28:15;97247.22;;;-10.11;100.00
2397;BME280;1209;48.410;9.054;2022-12-18T03:30:43;97239.78;;;-10.19;100.00
2397;BME280;1209;48.410;9.054;2022-12-18T03:33:34;97225.94;;;-9.98;100.00
2397;BME280;1209;48.410;9.054;2022-12-18T03:36:02;97228.34;;;-10.37;100.00
2397;BME280;1209;48.410;9.054;2022-12-18T03:38:28;97236.09;;;-10.01;100.00
2397;BME280;1209;48.410;9.054;2022-12-18T03:41:10;97243.94;;;-10.17;100.00
2397;BME280;1209;48.410;9.054;2022-12-18T03:44:03;97242.47;;;-10.27;100.00
2397;BME280;1209;48.410;9.054;2022-12-18T03:46:43;97236.91;;;-10.49;100.00
2397;BME280;1209;48.410;9.054;2022-12-18T03:49:14;97246.66;;;-10.26;100.00
2397;BME280;1209;48.410;9.054;2022-12-18T03:51:49;97244.72;;;-10.13;100.00
2397;BME280;1209;48.410;9.054;2022-12-18T03:54:17;97239.56;;;-10.07;100.00
2397;BME280;1209;48.410;9.054;2022-12-18T03:56:46;97241.91;;;-9.96;100.00
2397;BME280;1209;48.410;9.054;2022-12-18T03:59:15;97229.41;;;-10.02;100.00
2397;BME280;1209;48.410;9.054;2022-12-18T04:01:46;97226.03;;;-10.03;100.00
2397;BME280;1209;48.410;9.054;2022-12-18T04:04:14;97223.53;;;-10.04;100.00
2397;BME280;1209;48.410;9.054;2022-12-18T04:06:41;97223.63;;;-10.09;100.00
2397;BME280;1209;48.410;9.054;2022-12-18T04:09:07;97232.75;;;-10.02;100.00
2397;BME280;1209;48.410;9.054;2022-12-18T04:11:33;97229.78;;;-10.24;100.00
2397;BME280;1209;48.410;9.054;2022-12-18T04:13:58;97222.81;;;-10.11;100.00
2397;BME280;1209;48.410;9.054;2022-12-18T04:16:25;97235.81;;;-10.31;100.00
2397;BME280;1209;48.410;9.054;2022-12-18T04:18:50;97237.84;;;-10.05;100.00
2397;BME280;1209;48.410;9.054;2022-12-18T04:21:16;97244.75;;;-10.14;100.00
2397;BME280;1209;48.410;9.054;2022-12-18T04:23:41;97241.31;;;-10.10;100.00
2397;BME280;1209;48.410;9.054;2022-12-18T04:26:06;97238.50;;;-10.44;100.00
2397;BME280;1209;48.410;9.054;2022-12-18T04:28:31;97241.81;;;-10.41;100.00
2397;BME280;1209;48.410;9.054;2022-12-18T04:30:57;97246.97;;;-10.47;100.00
2397;BME280;1209;48.410;9.054;2022-12-18T04:33:22;97246.06;;;-10.43;100.00
2397;BME280;1209;48.410;9.054;2022-12-18T04:35:47;97255.13;;;-10.30;100.00
2397;BME280;1209;48.410;9.054;2022-12-18T04:38:13;97257.84;;;-10.43;100.00
2397;BME280;1209;48.410;9.054;2022-12-18T04:40:39;97250.09;;;-10.30;100.00
2397;BME280;1209;48.410;9.054;2022-12-18T04:43:04;97268.16;;;-10.57;100.00
2397;BME280;1209;48.410;9.054;2022-12-18T04:45:31;97256.44;;;-10.61;100.00
2397;BME280;1209;48.410;9.054;2022-12-18T04:48:00;97257.09;;;-10.49;100.00
2397;BME280;1209;48.410;9.054;2022-12-18T04:50:26;97248.69;;;-10.51;100.00
2397;BME280;1209;48.410;9.054;2022-12-18T04:52:52;97244.81;;;-10.71;100.00
2397;BME280;1209;48.410;9.054;2022-12-18T04:55:18;97247.34;;;-10.71;100.00
2397;BME280;1209;48.410;9.054;2022-12-18T04:57:43;97264.13;;;-10.69;100.00
2397;BME280;1209;48.410;9.054;2022-12-18T05:00:10;97258.59;;;-10.97;100.00
2397;BME280;1209;48.410;9.054;2022-12-18T05:02:35;97249.38;;;-10.99;100.00
2397;BME280;1209;48.410;9.054;2022-12-18T05:05:00;97235.28;;;-11.13;100.00
2397;BME280;1209;48.410;9.054;2022-12-18T05:07:26;97220.63;;;-10.85;100.00
2397;BME280;1209;48.410;9.054;2022-12-18T05:09:51;97211.94;;;-10.65;100.00
2397;BME280;1209;48.410;9.054;2022-12-18T05:12:16;97211.41;;;-10.86;100.00
2397;BME280;1209;48.410;9.054;2022-12-18T05:14:41;97199.50;;;-10.76;100.00
2397;BME280;1209;48.410;9.054;2022-12-18T05:17:07;97205.28;;;-10.69;100.00
2397;BME280;1209;48.410;9.054;2022-12-18T05:19:32;97204.97;;;-10.51;100.00
2397;BME280;1209;48.410;9.054;2022-12-18T05:21:57;97225.22;;;-10.54;100.00
2397;BME280;1209;48.410;9.054;2022-12-18T05:24:23;97218.16;;;-10.91;100.00
2397;BME280;1209;48.410;9.054;2022-12-18T05:26:48;97217.56;;;-11.08;100.00
2397;BME280;1209;48.410;9.054;2022-12-18T05:29:13;97227.38;;;-11.54;100.00
2397;BME280;1209;48.410;9.054;2022-12-18T05:31:39;97224.00;;;-11.53;100.00
2397;BME280;1209;48.410;9.054;2022-12-18T05:34:05;97239.03;;;-11.46;100.00
2397;BME280;1209;48.410;9.054;2022-12-18T05:36:30;97249.28;;;-11.61;100.00
2397;BME280;1209;48.410;9.054;2022-12-18T05:38:55;97243.09;;;-11.35;100.00
2397;BME280;1209;48.410;9.054;2022-12-18T05:41:21;97246.69;;;-11.53;100.00
2397;BME280;1209;48.410;9.054;2022-12-18T05:43:46;97250.88;;;-11.52;100.00
2397;BME280;1209;48.410;9.054;2022-12-18T05:46:14;97255.84;;;-11.48;100.00
2397;BME280;1209;48.410;9.054;2022-12-18T05:48:40;97256.50;;;-11.29;100.00
2397;BME280;1209;48.410;9.054;2022-12-18T05:51:11;97257.31;;;-11.27;100.00
2397;BME280;1209;48.410;9.054;2022-12-18T05:53:36;97252.28;;;-11.27;100.00
2397;BME280;1209;48.410;9.054;2022-12-18T05:56:04;97243.78;;;-11.21;100.00
2397;BME280;1209;48.410;9.054;2022-12-18T05:58:31;97245.69;;;-11.41;100.00
2397;BME280;1209;48.410;9.054;2022-12-18T06:00:57;97237.00;;;-11.16;100.00
2397;BME280;1209;48.410;9.054;2022-12-18T06:03:23;97242.25;;;-11.33;100.00
2397;BME280;1209;48.410;9.054;2022-12-18T06:05:48;97234.31;;;-11.04;100.00
2397;BME280;1209;48.410;9.054;2022-12-18T06:08:13;97225.75;;;-10.92;100.00
2397;BME280;1209;48.410;9.054;2022-12-18T06:10:40;97223.38;;;-11.03;100.00
2397;BME280;1209;48.410;9.054;2022-12-18T06:13:06;97221.88;;;-11.16;100.00
2397;BME280;1209;48.410;9.054;2022-12-18T06:15:31;97234.53;;;-11.19;100.00
2397;BME280;1209;48.410;9.054;2022-12-18T06:17:57;97238.47;;;-11.00;100.00
2397;BME280;1209;48.410;9.054;2022-12-18T06:20:23;97242.06;;;-11.18;100.00
2397;BME280;1209;48.410;9.054;2022-12-18T06:22:48;97251.44;;;-11.29;100.00
2397;BME280;1209;48.410;9.054;2022-12-18T06:25:13;97252.28;;;-11.27;100.00
2397;BME280;1209;48.410;9.054;2022-12-18T06:27:39;97263.41;;;-11.48;100.00
2397;BME280;1209;48.410;9.054;2022-12-18T06:30:05;97266.00;;;-11.54;100.00
2397;BME280;1209;48.410;9.054;2022-12-18T06:32:30;97268.44;;;-11.46;100.00
2397;BME280;1209;48.410;9.054;2022-12-18T06:34:55;97274.31;;;-11.47;100.00
2397;BME280;1209;48.410;9.054;2022-12-18T06:37:21;97268.84;;;-11.81;100.00
2397;BME280;1209;48.410;9.054;2022-12-18T06:39:49;97278.63;;;-11.57;100.00
2397;BME280;1209;48.410;9.054;2022-12-18T06:42:15;97286.31;;;-11.69;100.00
2397;BME280;1209;48.410;9.054;2022-12-18T06:44:40;97287.88;;;-11.57;100.00
2397;BME280;1209;48.410;9.054;2022-12-18T06:47:05;97291.97;;;-11.50;100.00
2397;BME280;1209;48.410;9.054;2022-12-18T06:49:31;97285.97;;;-11.38;100.00
2397;BME280;1209;48.410;9.054;2022-12-18T06:51:56;97284.75;;;-11.78;100.00
2397;BME280;1209;48.410;9.054;2022-12-18T06:54:21;97286.22;;;-11.60;100.00
2397;BME280;1209;48.410;9.054;2022-12-18T06:56:46;97282.16;;;-11.73;100.00
2397;BME280;1209;48.410;9.054;2022-12-18T06:59:12;97286.13;;;-11.51;100.00
2397;BME280;1209;48.410;9.054;2022-12-18T07:01:38;97298.66;;;-11.48;100.00
2397;BME280;1209;48.410;9.054;2022-12-18T07:04:03;97299.47;;;-11.43;100.00
2397;BME280;1209;48.410;9.054;2022-12-18T07:06:28;97307.84;;;-11.40;100.00
2397;BME280;1209;48.410;9.054;2022-12-18T07:08:54;97318.00;;;-11.48;100.00
2397;BME280;1209;48.410;9.054;2022-12-18T07:11:20;97315.47;;;-11.48;100.00
2397;BME280;1209;48.410;9.054;2022-12-18T07:13:46;97313.78;;;-11.46;100.00
2397;BME280;1209;48.410;9.054;2022-12-18T07:16:13;97318.72;;;-11.38;100.00
2397;BME280;1209;48.410;9.054;2022-12-18T07:18:39;97317.88;;;-11.39;100.00
2397;BME280;1209;48.410;9.054;2022-12-18T07:21:10;97326.22;;;-11.29;100.00
2397;BME280;1209;48.410;9.054;2022-12-18T07:23:36;97331.19;;;-11.23;100.00
2397;BME280;1209;48.410;9.054;2022-12-18T07:26:07;97327.13;;;-11.35;100.00
2397;BME280;1209;48.410;9.054;2022-12-18T07:28:35;97325.47;;;-11.42;100.00
2397;BME280;1209;48.410;9.054;2022-12-18T07:31:09;97323.66;;;-11.25;100.00
2397;BME280;1209;48.410;9.054;2022-12-18T07:33:34;97328.00;;;-11.40;100.00
2397;BME280;1209;48.410;9.054;2022-12-18T07:36:01;97329.59;;;-11.30;100.00
2397;BME280;1209;48.410;9.054;2022-12-18T07:38:26;97328.81;;;-11.40;100.00
2397;BME280;1209;48.410;9.054;2022-12-18T07:40:52;97324.50;;;-11.27;100.00
2397;BME280;1209;48.410;9.054;2022-12-18T07:43:17;97322.72;;;-11.18;100.00
2397;BME280;1209;48.410;9.054;2022-12-18T07:45:43;97322.78;;;-11.22;100.00
2397;BME280;1209;48.410;9.054;2022-12-18T07:48:08;97311.69;;;-11.07;100.00
2397;BME280;1209;48.410;9.054;2022-12-18T07:50:33;97311.03;;;-11.23;100.00
2397;BME280;1209;48.410;9.054;2022-12-18T07:52:59;97310.91;;;-11.14;100.00
2397;BME280;1209;48.410;9.054;2022-12-18T07:55:30;97314.28;;;-11.14;100.00
2397;BME280;1209;48.410;9.054;2022-12-18T07:57:56;97318.50;;;-11.17;100.00
2397;BME280;1209;48.410;9.054;2022-12-18T08:00:21;97311.84;;;-11.23;100.00
2397;BME280;1209;48.410;9.054;2022-12-18T08:02:46;97317.50;;;-11.04;100.00
2397;BME280;1209;48.410;9.054;2022-12-18T08:05:12;97313.22;;;-10.97;100.00
2397;BME280;1209;48.410;9.054;2022-12-18T08:07:38;97326.66;;;-10.95;100.00
2397;BME280;1209;48.410;9.054;2022-12-18T08:10:04;97310.59;;;-10.88;100.00
2397;BME280;1209;48.410;9.054;2022-12-18T08:12:29;97323.03;;;-10.74;100.00
2397;BME280;1209;48.410;9.054;2022-12-18T08:14:55;97312.09;;;-10.73;100.00
2397;BME280;1209;48.410;9.054;2022-12-18T08:17:20;97319.53;;;-10.64;100.00
2397;BME280;1209;48.410;9.054;2022-12-18T08:19:45;97316.16;;;-10.62;100.00
2397;BME280;1209;48.410;9.054;2022-12-18T08:22:10;97315.31;;;-10.62;100.00
2397;BME280;1209;48.410;9.054;2022-12-18T08:24:36;97322.78;;;-10.56;100.00
2397;BME280;1209;48.410;9.054;2022-12-18T08:27:01;97321.84;;;-10.48;100.00
2397;BME280;1209;48.410;9.054;2022-12-18T08:29:26;97327.63;;;-10.41;100.00
2397;BME280;1209;48.410;9.054;2022-12-18T08:31:51;97320.66;;;-10.24;100.00
2397;BME280;1209;48.410;9.054;2022-12-18T08:34:17;97328.81;;;-10.08;100.00
2397;BME280;1209;48.410;9.054;2022-12-18T08:36:42;97333.75;;;-10.02;100.00
2397;BME280;1209;48.410;9.054;2022-12-18T08:39:07;97331.91;;;-9.91;100.00
2397;BME280;1209;48.410;9.054;2022-12-18T08:41:33;97341.94;;;-9.85;100.00
2397;BME280;1209;48.410;9.054;2022-12-18T08:43:58;97339.78;;;-9.58;100.00
2397;BME280;1209;48.410;9.054;2022-12-18T08:46:43;97339.50;;;-9.40;100.00
2397;BME280;1209;48.410;9.054;2022-12-18T08:49:10;97341.88;;;-9.32;100.00
2397;BME280;1209;48.410;9.054;2022-12-18T08:51:36;97342.22;;;-9.06;100.00
2397;BME280;1209;48.410;9.054;2022-12-18T08:54:02;97343.53;;;-8.85;100.00
2397;BME280;1209;48.410;9.054;2022-12-18T08:56:28;97338.88;;;-8.65;100.00
2397;BME280;1209;48.410;9.054;2022-12-18T08:58:55;97319.91;;;-8.44;100.00
2397;BME280;1209;48.410;9.054;2022-12-18T09:01:21;97315.31;;;-8.30;100.00
2397;BME280;1209;48.410;9.054;2022-12-18T09:03:47;97305.69;;;-8.15;100.00
2397;BME280;1209;48.410;9.054;2022-12-18T09:06:14;97310.22;;;-8.28;100.00
2397;BME280;1209;48.410;9.054;2022-12-18T09:08:41;97310.44;;;-8.00;100.00
2397;BME280;1209;48.410;9.054;2022-12-18T09:11:12;97305.91;;;-7.87;100.00
2397;BME280;1209;48.410;9.054;2022-12-18T09:13:38;97303.47;;;-7.92;100.00
2397;BME280;1209;48.410;9.054;2022-12-18T09:16:03;97296.72;;;-7.59;100.00
2397;BME280;1209;48.410;9.054;2022-12-18T09:18:29;97296.25;;;-7.39;100.00
2397;BME280;1209;48.410;9.054;2022-12-18T09:20:54;97287.31;;;-7.21;100.00
2397;BME280;1209;48.410;9.054;2022-12-18T09:23:20;97290.47;;;-7.13;100.00
2397;BME280;1209;48.410;9.054;2022-12-18T09:25:46;97286.81;;;-7.03;100.00
2397;BME280;1209;48.410;9.054;2022-12-18T09:28:15;97274.84;;;-6.98;100.00
2397;BME280;1209;48.410;9.054;2022-12-18T09:30:43;97283.38;;;-7.01;100.00
2397;BME280;1209;48.410;9.054;2022-12-18T09:33:08;97284.06;;;-6.95;100.00
2397;BME280;1209;48.410;9.054;2022-12-18T09:35:37;97284.59;;;-6.84;100.00
2397;BME280;1209;48.410;9.054;2022-12-18T09:38:03;97282.50;;;-6.70;100.00
2397;BME280;1209;48.410;9.054;2022-12-18T09:40:35;97289.69;;;-6.55;100.00
2397;BME280;1209;48.410;9.054;2022-12-18T09:43:04;97286.88;;;-6.46;100.00
2397;BME280;1209;48.410;9.054;2022-12-18T09:45:43;97283.25;;;-6.39;100.00
2397;BME280;1209;48.410;9.054;2022-12-18T09:48:20;97276.81;;;-6.22;100.00
2397;BME280;1209;48.410;9.054;2022-12-18T09:50:47;97278.97;;;-6.09;100.00
2397;BME280;1209;48.410;9.054;2022-12-18T09:53:19;97280.22;;;-5.95;100.00
2397;BME280;1209;48.410;9.054;2022-12-18T09:55:48;97284.88;;;-5.83;100.00
2397;BME280;1209;48.410;9.054;2022-12-18T09:58:28;97288.22;;;-5.81;100.00
2397;BME280;1209;48.410;9.054;2022-12-18T10:00:56;97281.28;;;-5.51;100.00
2397;BME280;1209;48.410;9.054;2022-12-18T10:03:22;97286.94;;;-5.43;100.00
2397;BME280;1209;48.410;9.054;2022-12-18T10:11:32;97302.97;;;-5.15;100.00
2397;BME280;1209;48.410;9.054;2022-12-18T10:14:15;97306.28;;;-5.13;100.00
2397;BME280;1209;48.410;9.054;2022-12-18T10:19:40;97307.28;;;-4.93;100.00
2397;BME280;1209;48.410;9.054;2022-12-18T10:22:17;97296.81;;;-4.86;100.00
2397;BME280;1209;48.410;9.054;2022-12-18T10:24:52;97302.84;;;-4.88;100.00
2397;BME280;1209;48.410;9.054;2022-12-18T10:27:25;97305.84;;;-4.77;100.00
2397;BME280;1209;48.410;9.054;2022-12-18T10:29:51;97300.34;;;-4.65;100.00
2397;BME280;1209;48.410;9.054;2022-12-18T10:32:18;97293.56;;;-4.66;100.00
2397;BME280;1209;48.410;9.054;2022-12-18T10:34:46;97291.88;;;-4.44;100.00
2397;BME280;1209;48.410;9.054;2022-12-18T10:37:16;97282.66;;;-4.24;100.00
2397;BME280;1209;48.410;9.054;2022-12-18T10:39:42;97286.53;;;-4.14;100.00
2397;BME280;1209;48.410;9.054;2022-12-18T10:42:18;97294.00;;;-4.09;100.00
2397;BME280;1209;48.410;9.054;2022-12-18T10:44:44;97286.75;;;-3.98;100.00
2397;BME280;1209;48.410;9.054;2022-12-18T10:47:19;97284.34;;;-3.81;100.00
2397;BME280;1209;48.410;9.054;2022-12-18T10:49:52;97293.75;;;-3.61;100.00
2397;BME280;1209;48.410;9.054;2022-12-18T10:52:24;97289.03;;;-3.50;100.00
2397;BME280;1209;48.410;9.054;2022-12-18T10:54:57;97300.66;;;-3.43;100.00
2397;BME280;1209;48.410;9.054;2022-12-18T10:59:56;97292.06;;;-3.20;100.00
2397;BME280;1209;48.410;9.054;2022-12-18T11:02:35;97291.34;;;-3.24;100.00
2397;BME280;1209;48.410;9.054;2022-12-18T11:05:02;97287.44;;;-3.12;100.00
2397;BME280;1209;48.410;9.054;2022-12-18T11:07:47;97272.19;;;-3.13;100.00
2397;BME280;1209;48.410;9.054;2022-12-18T11:10:18;97263.56;;;-3.11;100.00
2397;BME280;1209;48.410;9.054;2022-12-18T11:12:44;97252.16;;;-3.23;100.00
2397;BME280;1209;48.410;9.054;2022-12-18T11:15:23;97239.75;;;-3.11;100.00
2397;BME280;1209;48.410;9.054;2022-12-18T11:17:50;97247.63;;;-2.97;100.00
2397;BME280;1209;48.410;9.054;2022-12-18T11:20:35;97244.88;;;-2.93;100.00
2397;BME280;1209;48.410;9.054;2022-12-18T11:23:11;97237.69;;;-3.03;100.00
2397;BME280;1209;48.410;9.054;2022-12-18T11:25:38;97240.53;;;-3.50;100.00
2397;BME280;1209;48.410;9.054;2022-12-18T11:28:28;97242.16;;;-3.27;100.00
2397;BME280;1209;48.410;9.054;2022-12-18T11:31:19;97242.50;;;-3.36;100.00
2397;BME280;1209;48.410;9.054;2022-12-18T11:33:52;97245.16;;;-3.58;100.00
2397;BME280;1209;48.410;9.054;2022-12-18T11:36:19;97246.63;;;-3.53;100.00
2397;BME280;1209;48.410;9.054;2022-12-18T11:38:46;97241.91;;;-3.62;100.00
2397;BME280;1209;48.410;9.054;2022-12-18T11:41:23;97237.38;;;-3.75;100.00
2397;BME280;1209;48.410;9.054;2022-12-18T11:44:21;97234.53;;;-3.90;100.00
2397;BME280;1209;48.410;9.054;2022-12-18T11:46:52;97234.50;;;-3.68;100.00
2397;BME280;1209;48.410;9.054;2022-12-18T11:49:24;97233.03;;;-3.73;100.00
2397;BME280;1209;48.410;9.054;2022-12-18T11:54:34;97236.47;;;-3.54;100.00
2397;BME280;1209;48.410;9.054;2022-12-18T11:57:19;97225.38;;;-3.53;100.00
2397;BME280;1209;48.410;9.054;2022-12-18T12:02:53;97228.28;;;-3.22;100.00
2397;BME280;1209;48.410;9.054;2022-12-18T12:05:34;97222.16;;;-3.18;100.00
2397;BME280;1209;48.410;9.054;2022-12-18T12:08:13;97225.81;;;-3.04;100.00
2397;BME280;1209;48.410;9.054;2022-12-18T12:13:52;97220.34;;;-3.15;100.00
2397;BME280;1209;48.410;9.054;2022-12-18T12:16:32;97218.56;;;-3.13;100.00
2397;BME280;1209;48.410;9.054;2022-12-18T12:24:55;97207.72;;;-3.00;100.00
2397;BME280;1209;48.410;9.054;2022-12-18T12:27:38;97203.16;;;-2.93;100.00
2397;BME280;1209;48.410;9.054;2022-12-18T12:30:26;97196.69;;;-2.81;100.00
2397;BME280;1209;48.410;9.054;2022-12-18T12:38:19;97201.97;;;-2.48;100.00
2397;BME280;1209;48.410;9.054;2022-12-18T12:41:09;97203.41;;;-2.43;100.00
2397;BME280;1209;48.410;9.054;2022-12-18T12:43:58;97203.34;;;-2.41;100.00
2397;BME280;1209;48.410;9.054;2022-12-18T12:46:26;97207.38;;;-2.36;100.00
2397;BME280;1209;48.410;9.054;2022-12-18T12:49:12;97208.50;;;-2.24;100.00
2397;BME280;1209;48.410;9.054;2022-12-18T12:51:41;97216.88;;;-2.20;100.00
2397;BME280;1209;48.410;9.054;2022-12-18T12:54:15;97216.56;;;-2.32;100.00
2397;BME280;1209;48.410;9.054;2022-12-18T12:56:50;97229.94;;;-2.45;100.00
2397;BME280;1209;48.410;9.054;2022-12-18T12:59:31;97227.88;;;-2.94;100.00
2397;BME280;1209;48.410;9.054;2022-12-18T13:07:54;97226.78;;;-2.88;100.00
2397;BME280;1209;48.410;9.054;2022-12-18T13:10:28;97233.56;;;-2.68;100.00
2397;BME280;1209;48.410;9.054;2022-12-18T13:15:40;97251.25;;;-2.45;100.00
2397;BME280;1209;48.410;9.054;2022-12-18T13:20:51;97238.47;;;-2.82;100.00
2397;BME280;1209;48.410;9.054;2022-12-18T13:23:29;97241.63;;;-2.96;100.00
2397;BME280;1209;48.410;9.054;2022-12-18T13:25:56;97236.72;;;-3.01;100.00
2397;BME280;1209;48.410;9.054;2022-12-18T13:34:16;97241.56;;;-2.95;100.00
2397;BME280;1209;48.410;9.054;2022-12-18T13:36:42;97243.91;;;-2.90;100.00
2397;BME280;1209;48.410;9.054;2022-12-18T13:39:21;97230.72;;;-2.62;100.00
2397;BME280;1209;48.410;9.054;2022-12-18T13:44:58;97224.25;;;-2.14;100.00
2397;BME280;1209;48.410;9.054;2022-12-18T13:47:37;97224.41;;;-2.17;100.00
2397;BME280;1209;48.410;9.054;2022-12-18T13:50:30;97232.16;;;-2.02;100.00
2397;BME280;1209;48.410;9.054;2022-12-18T13:52:55;97222.38;;;-1.94;100.00
2397;BME280;1209;48.410;9.054;2022-12-18T13:55:22;97221.53;;;-1.94;100.00
2397;BME280;1209;48.410;9.054;2022-12-18T13:57:47;97225.75;;;-1.93;100.00
2397;BME280;1209;48.410;9.054;2022-12-18T14:02:45;97219.00;;;-1.94;100.00
2397;BME280;1209;48.410;9.054;2022-12-18T14:05:28;97225.28;;;-1.82;100.00
2397;BME280;1209;48.410;9.054;2022-12-18T14:07:55;97220.97;;;-1.82;100.00
2397;BME280;1209;48.410;9.054;2022-12-18T14:10:23;97216.88;;;-2.03;100.00
2397;BME280;1209;48.410;9.054;2022-12-18T14:12:50;97216.66;;;-1.99;100.00
2397;BME280;1209;48.410;9.054;2022-12-18T14:17:55;97217.31;;;-2.30;100.00
2397;BME280;1209;48.410;9.054;2022-12-18T14:20:22;97204.75;;;-2.17;100.00
2397;BME280;1209;48.410;9.054;2022-12-18T14:22:49;97210.94;;;-2.04;100.00
2397;BME280;1209;48.410;9.054;2022-12-18T14:25:25;97206.72;;;-2.41;100.00